Terminal Aerodrome Forecast
Issued by NWS Cleveland, OH

Home | Current Version | Previous Version | Text Only | Print | Product List | Glossary Off
Versions: 1 2 3 4 5 6 7 8 9 10 11 12 13 14 15 16 17 18

000
FTUS41 KCLE 162331
TAFYNG
TAF
KYNG 162331Z 1700/1724 25015G22KT P6SM -SHSN OVC025
     FM170500 25012G22KT P6SM -SHSN OVC015
     FM171800 27015G25KT P6SM VCSH OVC015=

USA.gov is the U.S. government's official web portal to all federal, state and local government web resources and services.